sensor_id;sensor_type;location;lat;lon;timestamp;P1;durP1;ratioP1;P2;durP2;ratioP2
20283;SDS011;10301;50.832;4.080;2022-08-19T00:00:15;29.92;;;24.35;;
20283;SDS011;10301;50.832;4.080;2022-08-19T00:02:41;32.03;;;25.20;;
20283;SDS011;10301;50.832;4.080;2022-08-19T00:05:07;31.52;;;25.73;;
20283;SDS011;10301;50.832;4.080;2022-08-19T00:07:34;36.00;;;27.08;;
20283;SDS011;10301;50.832;4.080;2022-08-19T00:10:00;33.38;;;26.55;;
20283;SDS011;10301;50.832;4.080;2022-08-19T00:12:26;33.60;;;26.40;;
20283;SDS011;10301;50.832;4.080;2022-08-19T00:14:52;38.10;;;29.00;;
20283;SDS011;10301;50.832;4.080;2022-08-19T00:17:19;36.75;;;27.73;;
20283;SDS011;10301;50.832;4.080;2022-08-19T00:19:44;35.20;;;27.23;;
20283;SDS011;10301;50.832;4.080;2022-08-19T00:22:10;34.42;;;27.40;;
20283;SDS011;10301;50.832;4.080;2022-08-19T00:24:36;36.17;;;27.92;;
20283;SDS011;10301;50.832;4.080;2022-08-19T00:27:03;35.63;;;25.80;;
20283;SDS011;10301;50.832;4.080;2022-08-19T00:29:29;38.25;;;28.30;;
20283;SDS011;10301;50.832;4.080;2022-08-19T00:31:56;37.35;;;27.85;;
20283;SDS011;10301;50.832;4.080;2022-08-19T00:34:23;36.28;;;28.63;;
20283;SDS011;10301;50.832;4.080;2022-08-19T00:36:52;36.55;;;28.73;;
20283;SDS011;10301;50.832;4.080;2022-08-19T00:39:18;41.88;;;30.23;;
20283;SDS011;10301;50.832;4.080;2022-08-19T00:41:45;39.90;;;30.73;;
20283;SDS011;10301;50.832;4.080;2022-08-19T00:44:17;46.85;;;32.17;;
20283;SDS011;10301;50.832;4.080;2022-08-19T00:46:45;42.25;;;31.90;;
20283;SDS011;10301;50.832;4.080;2022-08-19T00:49:23;42.42;;;31.75;;
20283;SDS011;10301;50.832;4.080;2022-08-19T00:52:05;45.88;;;32.55;;
20283;SDS011;10301;50.832;4.080;2022-08-19T00:54:38;43.50;;;31.70;;
20283;SDS011;10301;50.832;4.080;2022-08-19T00:57:06;43.95;;;31.15;;
20283;SDS011;10301;50.832;4.080;2022-08-19T00:59:37;44.42;;;32.13;;
20283;SDS011;10301;50.832;4.080;2022-08-19T01:02:05;49.30;;;33.67;;
20283;SDS011;10301;50.832;4.080;2022-08-19T01:04:31;46.17;;;33.42;;
20283;SDS011;10301;50.832;4.080;2022-08-19T01:06:57;43.45;;;31.40;;
20283;SDS011;10301;50.832;4.080;2022-08-19T01:09:24;46.25;;;31.88;;
20283;SDS011;10301;50.832;4.080;2022-08-19T01:11:50;44.08;;;33.35;;
20283;SDS011;10301;50.832;4.080;2022-08-19T01:14:16;45.25;;;31.13;;
20283;SDS011;10301;50.832;4.080;2022-08-19T01:16:42;45.42;;;33.10;;
20283;SDS011;10301;50.832;4.080;2022-08-19T01:19:12;48.67;;;34.53;;
20283;SDS011;10301;50.832;4.080;2022-08-19T01:22:02;44.33;;;32.78;;
20283;SDS011;10301;50.832;4.080;2022-08-19T01:24:45;46.65;;;32.60;;
20283;SDS011;10301;50.832;4.080;2022-08-19T01:27:10;43.60;;;30.90;;
20283;SDS011;10301;50.832;4.080;2022-08-19T01:29:39;44.63;;;32.15;;
20283;SDS011;10301;50.832;4.080;2022-08-19T01:32:07;41.28;;;30.90;;
20283;SDS011;10301;50.832;4.080;2022-08-19T01:34:36;43.42;;;31.52;;
20283;SDS011;10301;50.832;4.080;2022-08-19T01:37:05;43.90;;;31.55;;
20283;SDS011;10301;50.832;4.080;2022-08-19T01:39:33;44.80;;;31.80;;
20283;SDS011;10301;50.832;4.080;2022-08-19T01:41:59;45.30;;;32.10;;
20283;SDS011;10301;50.832;4.080;2022-08-19T01:44:28;44.03;;;31.70;;
20283;SDS011;10301;50.832;4.080;2022-08-19T01:46:54;48.28;;;31.65;;
20283;SDS011;10301;50.832;4.080;2022-08-19T01:49:21;43.25;;;31.08;;
20283;SDS011;10301;50.832;4.080;2022-08-19T01:51:49;43.83;;;31.63;;
20283;SDS011;10301;50.832;4.080;2022-08-19T01:54:16;45.00;;;31.63;;
20283;SDS011;10301;50.832;4.080;2022-08-19T01:56:42;41.03;;;31.13;;
20283;SDS011;10301;50.832;4.080;2022-08-19T01:59:10;48.35;;;30.38;;
20283;SDS011;10301;50.832;4.080;2022-08-19T02:01:39;44.72;;;30.92;;
20283;SDS011;10301;50.832;4.080;2022-08-19T02:04:05;50.10;;;32.83;;
20283;SDS011;10301;50.832;4.080;2022-08-19T02:06:31;48.03;;;31.95;;
20283;SDS011;10301;50.832;4.080;2022-08-19T02:08:58;43.47;;;29.92;;
20283;SDS011;10301;50.832;4.080;2022-08-19T02:11:28;45.58;;;30.25;;
20283;SDS011;10301;50.832;4.080;2022-08-19T02:13:58;44.33;;;30.92;;
20283;SDS011;10301;50.832;4.080;2022-08-19T02:16:29;45.53;;;30.10;;
20283;SDS011;10301;50.832;4.080;2022-08-19T02:18:55;43.55;;;28.15;;
20283;SDS011;10301;50.832;4.080;2022-08-19T02:21:22;43.65;;;29.80;;
20283;SDS011;10301;50.832;4.080;2022-08-19T02:23:48;46.90;;;30.33;;
20283;SDS011;10301;50.832;4.080;2022-08-19T02:26:15;42.50;;;28.75;;
20283;SDS011;10301;50.832;4.080;2022-08-19T02:28:41;46.35;;;28.38;;
20283;SDS011;10301;50.832;4.080;2022-08-19T02:31:19;40.20;;;27.23;;
20283;SDS011;10301;50.832;4.080;2022-08-19T02:33:47;43.47;;;26.70;;
20283;SDS011;10301;50.832;4.080;2022-08-19T02:36:14;43.60;;;26.40;;
20283;SDS011;10301;50.832;4.080;2022-08-19T02:38:40;38.67;;;26.67;;
20283;SDS011;10301;50.832;4.080;2022-08-19T02:41:08;37.42;;;25.63;;
20283;SDS011;10301;50.832;4.080;2022-08-19T02:43:38;42.08;;;26.38;;
20283;SDS011;10301;50.832;4.080;2022-08-19T02:46:18;39.25;;;26.10;;
20283;SDS011;10301;50.832;4.080;2022-08-19T02:48:48;41.42;;;25.40;;
20283;SDS011;10301;50.832;4.080;2022-08-19T02:51:16;39.65;;;25.88;;
20283;SDS011;10301;50.832;4.080;2022-08-19T02:53:46;42.95;;;27.15;;
20283;SDS011;10301;50.832;4.080;2022-08-19T02:56:12;40.13;;;25.30;;
20283;SDS011;10301;50.832;4.080;2022-08-19T02:58:38;37.85;;;24.75;;
20283;SDS011;10301;50.832;4.080;2022-08-19T03:01:03;40.60;;;24.05;;
20283;SDS011;10301;50.832;4.080;2022-08-19T03:03:29;40.55;;;24.15;;
20283;SDS011;10301;50.832;4.080;2022-08-19T03:06:11;37.22;;;24.65;;
20283;SDS011;10301;50.832;4.080;2022-08-19T03:08:39;37.72;;;23.75;;
20283;SDS011;10301;50.832;4.080;2022-08-19T03:11:11;34.78;;;24.00;;
20283;SDS011;10301;50.832;4.080;2022-08-19T03:13:39;37.13;;;24.35;;
20283;SDS011;10301;50.832;4.080;2022-08-19T03:16:04;36.53;;;23.38;;
20283;SDS011;10301;50.832;4.080;2022-08-19T03:18:30;37.47;;;22.90;;
20283;SDS011;10301;50.832;4.080;2022-08-19T03:20:56;38.42;;;23.95;;
20283;SDS011;10301;50.832;4.080;2022-08-19T03:23:22;36.10;;;23.80;;
20283;SDS011;10301;50.832;4.080;2022-08-19T03:25:49;38.42;;;23.67;;
20283;SDS011;10301;50.832;4.080;2022-08-19T03:28:16;37.00;;;22.83;;
20283;SDS011;10301;50.832;4.080;2022-08-19T03:30:42;34.90;;;22.40;;
20283;SDS011;10301;50.832;4.080;2022-08-19T03:33:21;35.50;;;22.13;;
20283;SDS011;10301;50.832;4.080;2022-08-19T03:35:58;36.03;;;22.67;;
20283;SDS011;10301;50.832;4.080;2022-08-19T03:38:27;34.60;;;21.88;;
20283;SDS011;10301;50.832;4.080;2022-08-19T03:40:53;36.22;;;22.38;;
20283;SDS011;10301;50.832;4.080;2022-08-19T03:43:19;34.65;;;22.75;;
20283;SDS011;10301;50.832;4.080;2022-08-19T03:45:44;35.67;;;21.85;;
20283;SDS011;10301;50.832;4.080;2022-08-19T03:48:10;37.22;;;22.95;;
20283;SDS011;10301;50.832;4.080;2022-08-19T03:50:39;35.67;;;21.27;;
20283;SDS011;10301;50.832;4.080;2022-08-19T03:53:05;35.97;;;22.52;;
20283;SDS011;10301;50.832;4.080;2022-08-19T03:55:32;34.97;;;21.67;;
20283;SDS011;10301;50.832;4.080;2022-08-19T03:57:58;32.88;;;21.42;;
20283;SDS011;10301;50.832;4.080;2022-08-19T04:00:24;36.40;;;22.85;;
20283;SDS011;10301;50.832;4.080;2022-08-19T04:02:49;35.55;;;20.75;;
20283;SDS011;10301;50.832;4.080;2022-08-19T04:05:15;34.78;;;22.33;;
20283;SDS011;10301;50.832;4.080;2022-08-19T04:07:40;34.00;;;20.98;;
20283;SDS011;10301;50.832;4.080;2022-08-19T04:10:06;36.97;;;21.15;;
20283;SDS011;10301;50.832;4.080;2022-08-19T04:12:32;34.60;;;21.45;;
20283;SDS011;10301;50.832;4.080;2022-08-19T04:14:57;36.30;;;21.52;;
20283;SDS011;10301;50.832;4.080;2022-08-19T04:17:23;37.85;;;22.25;;
20283;SDS011;10301;50.832;4.080;2022-08-19T04:19:49;34.30;;;21.52;;
20283;SDS011;10301;50.832;4.080;2022-08-19T04:22:14;35.47;;;20.30;;
20283;SDS011;10301;50.832;4.080;2022-08-19T04:24:40;35.55;;;21.60;;
20283;SDS011;10301;50.832;4.080;2022-08-19T04:27:06;34.28;;;20.92;;
20283;SDS011;10301;50.832;4.080;2022-08-19T04:29:32;35.25;;;20.75;;
20283;SDS011;10301;50.832;4.080;2022-08-19T04:31:58;34.00;;;20.48;;
20283;SDS011;10301;50.832;4.080;2022-08-19T04:34:25;34.83;;;19.67;;
20283;SDS011;10301;50.832;4.080;2022-08-19T04:36:55;35.20;;;19.95;;
20283;SDS011;10301;50.832;4.080;2022-08-19T04:39:27;36.03;;;21.73;;
20283;SDS011;10301;50.832;4.080;2022-08-19T04:42:14;33.90;;;19.13;;
20283;SDS011;10301;50.832;4.080;2022-08-19T04:44:59;33.45;;;18.83;;
20283;SDS011;10301;50.832;4.080;2022-08-19T04:47:25;37.05;;;19.13;;
20283;SDS011;10301;50.832;4.080;2022-08-19T04:49:51;33.00;;;19.70;;
20283;SDS011;10301;50.832;4.080;2022-08-19T04:52:16;34.10;;;19.98;;
20283;SDS011;10301;50.832;4.080;2022-08-19T04:54:42;32.70;;;19.05;;
20283;SDS011;10301;50.832;4.080;2022-08-19T04:57:08;30.88;;;18.83;;
20283;SDS011;10301;50.832;4.080;2022-08-19T04:59:34;37.25;;;19.80;;
20283;SDS011;10301;50.832;4.080;2022-08-19T05:02:01;32.47;;;18.83;;
20283;SDS011;10301;50.832;4.080;2022-08-19T05:04:27;37.05;;;18.52;;
20283;SDS011;10301;50.832;4.080;2022-08-19T05:06:56;30.45;;;18.38;;
20283;SDS011;10301;50.832;4.080;2022-08-19T05:09:22;31.33;;;17.98;;
20283;SDS011;10301;50.832;4.080;2022-08-19T05:11:47;35.30;;;18.15;;
20283;SDS011;10301;50.832;4.080;2022-08-19T05:14:17;31.35;;;18.33;;
20283;SDS011;10301;50.832;4.080;2022-08-19T05:16:44;31.73;;;18.40;;
20283;SDS011;10301;50.832;4.080;2022-08-19T05:19:10;33.97;;;19.10;;
20283;SDS011;10301;50.832;4.080;2022-08-19T05:21:54;30.55;;;18.77;;
20283;SDS011;10301;50.832;4.080;2022-08-19T05:24:49;39.22;;;19.75;;
20283;SDS011;10301;50.832;4.080;2022-08-19T05:27:15;35.65;;;19.58;;
20283;SDS011;10301;50.832;4.080;2022-08-19T05:29:40;29.48;;;19.08;;
20283;SDS011;10301;50.832;4.080;2022-08-19T05:32:06;29.77;;;18.25;;
20283;SDS011;10301;50.832;4.080;2022-08-19T05:34:35;33.75;;;18.45;;
20283;SDS011;10301;50.832;4.080;2022-08-19T05:37:03;26.83;;;16.92;;
20283;SDS011;10301;50.832;4.080;2022-08-19T05:39:30;26.38;;;17.02;;
20283;SDS011;10301;50.832;4.080;2022-08-19T05:42:01;26.67;;;16.40;;
20283;SDS011;10301;50.832;4.080;2022-08-19T05:44:38;28.50;;;16.15;;
20283;SDS011;10301;50.832;4.080;2022-08-19T05:47:09;29.25;;;17.02;;
20283;SDS011;10301;50.832;4.080;2022-08-19T05:49:36;26.25;;;16.55;;
20283;SDS011;10301;50.832;4.080;2022-08-19T05:52:07;24.60;;;14.85;;
20283;SDS011;10301;50.832;4.080;2022-08-19T05:54:36;26.17;;;16.02;;
20283;SDS011;10301;50.832;4.080;2022-08-19T05:57:05;27.25;;;16.55;;
20283;SDS011;10301;50.832;4.080;2022-08-19T05:59:30;29.63;;;16.50;;
20283;SDS011;10301;50.832;4.080;2022-08-19T06:01:56;25.23;;;15.60;;
20283;SDS011;10301;50.832;4.080;2022-08-19T06:04:22;26.25;;;15.55;;
20283;SDS011;10301;50.832;4.080;2022-08-19T06:06:49;27.83;;;15.40;;
20283;SDS011;10301;50.832;4.080;2022-08-19T06:09:19;28.25;;;15.80;;
20283;SDS011;10301;50.832;4.080;2022-08-19T06:11:47;25.05;;;15.43;;
20283;SDS011;10301;50.832;4.080;2022-08-19T06:14:19;25.42;;;15.38;;
20283;SDS011;10301;50.832;4.080;2022-08-19T06:16:46;23.13;;;15.32;;
20283;SDS011;10301;50.832;4.080;2022-08-19T06:19:16;28.40;;;16.13;;
20283;SDS011;10301;50.832;4.080;2022-08-19T06:21:44;26.35;;;15.75;;
20283;SDS011;10301;50.832;4.080;2022-08-19T06:24:13;27.80;;;14.60;;
20283;SDS011;10301;50.832;4.080;2022-08-19T06:26:41;23.30;;;14.15;;
20283;SDS011;10301;50.832;4.080;2022-08-19T06:29:09;26.33;;;15.13;;
20283;SDS011;10301;50.832;4.080;2022-08-19T06:31:36;21.48;;;13.65;;
20283;SDS011;10301;50.832;4.080;2022-08-19T06:34:05;26.58;;;14.60;;
20283;SDS011;10301;50.832;4.080;2022-08-19T06:36:35;20.90;;;14.10;;
20283;SDS011;10301;50.832;4.080;2022-08-19T06:39:04;23.13;;;13.20;;
20283;SDS011;10301;50.832;4.080;2022-08-19T06:41:37;24.00;;;14.15;;
20283;SDS011;10301;50.832;4.080;2022-08-19T06:44:04;21.83;;;12.75;;
20283;SDS011;10301;50.832;4.080;2022-08-19T06:46:31;24.83;;;13.48;;
20283;SDS011;10301;50.832;4.080;2022-08-19T06:48:56;22.33;;;12.82;;
20283;SDS011;10301;50.832;4.080;2022-08-19T06:51:23;20.25;;;12.52;;
20283;SDS011;10301;50.832;4.080;2022-08-19T06:53:49;24.13;;;11.90;;
20283;SDS011;10301;50.832;4.080;2022-08-19T06:56:18;21.60;;;13.35;;
20283;SDS011;10301;50.832;4.080;2022-08-19T06:58:46;18.20;;;11.10;;
20283;SDS011;10301;50.832;4.080;2022-08-19T07:01:13;21.48;;;11.55;;
20283;SDS011;10301;50.832;4.080;2022-08-19T07:03:38;18.65;;;11.10;;
20283;SDS011;10301;50.832;4.080;2022-08-19T07:08:31;20.88;;;10.02;;
20283;SDS011;10301;50.832;4.080;2022-08-19T07:10:57;18.33;;;10.07;;
20283;SDS011;10301;50.832;4.080;2022-08-19T07:13:23;17.20;;;10.23;;
20283;SDS011;10301;50.832;4.080;2022-08-19T07:15:49;17.50;;;10.05;;
20283;SDS011;10301;50.832;4.080;2022-08-19T07:18:17;20.50;;;10.70;;
20283;SDS011;10301;50.832;4.080;2022-08-19T07:20:43;19.77;;;10.93;;
20283;SDS011;10301;50.832;4.080;2022-08-19T07:23:09;21.98;;;12.07;;
20283;SDS011;10301;50.832;4.080;2022-08-19T07:25:38;18.27;;;11.57;;
20283;SDS011;10301;50.832;4.080;2022-08-19T07:28:04;23.45;;;11.57;;
20283;SDS011;10301;50.832;4.080;2022-08-19T07:30:32;20.85;;;12.25;;
20283;SDS011;10301;50.832;4.080;2022-08-19T07:33:00;20.08;;;12.35;;
20283;SDS011;10301;50.832;4.080;2022-08-19T07:35:26;18.45;;;11.75;;
20283;SDS011;10301;50.832;4.080;2022-08-19T07:37:53;22.30;;;12.52;;
20283;SDS011;10301;50.832;4.080;2022-08-19T07:40:18;20.70;;;11.48;;
20283;SDS011;10301;50.832;4.080;2022-08-19T07:42:44;21.95;;;13.23;;
20283;SDS011;10301;50.832;4.080;2022-08-19T07:45:10;24.35;;;11.85;;
20283;SDS011;10301;50.832;4.080;2022-08-19T07:47:35;22.05;;;11.75;;
20283;SDS011;10301;50.832;4.080;2022-08-19T07:50:01;20.33;;;11.73;;
20283;SDS011;10301;50.832;4.080;2022-08-19T07:52:29;18.13;;;11.48;;
20283;SDS011;10301;50.832;4.080;2022-08-19T07:54:55;17.95;;;10.15;;
20283;SDS011;10301;50.832;4.080;2022-08-19T07:57:20;16.23;;;10.15;;
20283;SDS011;10301;50.832;4.080;2022-08-19T07:59:46;15.98;;;9.90;;
20283;SDS011;10301;50.832;4.080;2022-08-19T08:02:12;18.80;;;9.90;;
20283;SDS011;10301;50.832;4.080;2022-08-19T08:04:38;14.45;;;9.23;;
20283;SDS011;10301;50.832;4.080;2022-08-19T08:07:21;17.15;;;10.38;;
20283;SDS011;10301;50.832;4.080;2022-08-19T08:10:06;15.85;;;9.80;;
20283;SDS011;10301;50.832;4.080;2022-08-19T08:12:34;18.90;;;9.73;;
20283;SDS011;10301;50.832;4.080;2022-08-19T08:15:06;16.77;;;9.15;;
20283;SDS011;10301;50.832;4.080;2022-08-19T08:17:35;15.38;;;9.32;;
20283;SDS011;10301;50.832;4.080;2022-08-19T08:20:02;18.70;;;10.13;;
20283;SDS011;10301;50.832;4.080;2022-08-19T08:22:31;18.70;;;9.38;;
20283;SDS011;10301;50.832;4.080;2022-08-19T08:25:17;13.95;;;8.48;;
20283;SDS011;10301;50.832;4.080;2022-08-19T08:27:49;13.20;;;8.50;;
20283;SDS011;10301;50.832;4.080;2022-08-19T08:30:17;14.57;;;8.15;;
20283;SDS011;10301;50.832;4.080;2022-08-19T08:32:44;13.65;;;8.23;;
20283;SDS011;10301;50.832;4.080;2022-08-19T08:35:12;15.85;;;8.00;;
20283;SDS011;10301;50.832;4.080;2022-08-19T08:37:39;14.88;;;8.07;;
20283;SDS011;10301;50.832;4.080;2022-08-19T08:40:22;14.75;;;8.00;;
20283;SDS011;10301;50.832;4.080;2022-08-19T08:45:30;14.90;;;8.45;;
20283;SDS011;10301;50.832;4.080;2022-08-19T08:47:58;13.90;;;8.00;;
20283;SDS011;10301;50.832;4.080;2022-08-19T08:50:30;16.02;;;7.68;;
20283;SDS011;10301;50.832;4.080;2022-08-19T08:53:00;12.75;;;7.43;;
20283;SDS011;10301;50.832;4.080;2022-08-19T08:55:28;18.98;;;7.38;;
20283;SDS011;10301;50.832;4.080;2022-08-19T08:57:57;14.60;;;8.85;;
20283;SDS011;10301;50.832;4.080;2022-08-19T09:00:28;15.32;;;8.25;;
20283;SDS011;10301;50.832;4.080;2022-08-19T09:02:57;12.68;;;7.78;;
20283;SDS011;10301;50.832;4.080;2022-08-19T09:05:38;16.25;;;8.40;;
20283;SDS011;10301;50.832;4.080;2022-08-19T09:08:13;13.75;;;8.45;;
20283;SDS011;10301;50.832;4.080;2022-08-19T09:10:55;15.48;;;8.63;;
20283;SDS011;10301;50.832;4.080;2022-08-19T09:13:28;16.67;;;8.80;;
20283;SDS011;10301;50.832;4.080;2022-08-19T09:16:22;16.38;;;8.48;;
20283;SDS011;10301;50.832;4.080;2022-08-19T09:18:52;14.00;;;8.52;;
20283;SDS011;10301;50.832;4.080;2022-08-19T09:21:20;14.52;;;8.85;;
20283;SDS011;10301;50.832;4.080;2022-08-19T09:23:47;15.23;;;8.52;;
20283;SDS011;10301;50.832;4.080;2022-08-19T09:26:16;16.60;;;8.70;;
20283;SDS011;10301;50.832;4.080;2022-08-19T09:28:43;15.10;;;9.10;;
20283;SDS011;10301;50.832;4.080;2022-08-19T09:31:14;14.63;;;8.95;;
20283;SDS011;10301;50.832;4.080;2022-08-19T09:33:42;19.70;;;12.20;;
20283;SDS011;10301;50.832;4.080;2022-08-19T09:36:10;15.00;;;9.32;;
20283;SDS011;10301;50.832;4.080;2022-08-19T09:38:39;14.73;;;8.73;;
20283;SDS011;10301;50.832;4.080;2022-08-19T09:41:07;15.30;;;8.70;;
20283;SDS011;10301;50.832;4.080;2022-08-19T09:43:41;13.57;;;8.23;;
20283;SDS011;10301;50.832;4.080;2022-08-19T09:46:10;13.40;;;8.27;;
20283;SDS011;10301;50.832;4.080;2022-08-19T09:48:36;15.55;;;8.18;;
20283;SDS011;10301;50.832;4.080;2022-08-19T09:51:07;13.25;;;8.27;;
20283;SDS011;10301;50.832;4.080;2022-08-19T09:53:35;17.38;;;7.85;;
20283;SDS011;10301;50.832;4.080;2022-08-19T09:56:01;14.90;;;8.40;;
20283;SDS011;10301;50.832;4.080;2022-08-19T09:58:28;11.13;;;7.20;;
20283;SDS011;10301;50.832;4.080;2022-08-19T10:00:55;13.27;;;6.20;;
20283;SDS011;10301;50.832;4.080;2022-08-19T10:03:23;10.90;;;6.30;;
20283;SDS011;10301;50.832;4.080;2022-08-19T10:05:49;10.68;;;6.35;;
20283;SDS011;10301;50.832;4.080;2022-08-19T10:08:16;12.63;;;7.13;;
20283;SDS011;10301;50.832;4.080;2022-08-19T10:10:48;10.90;;;7.63;;
20283;SDS011;10301;50.832;4.080;2022-08-19T10:13:14;12.52;;;8.18;;
20283;SDS011;10301;50.832;4.080;2022-08-19T10:15:42;12.07;;;8.40;;
20283;SDS011;10301;50.832;4.080;2022-08-19T10:18:09;13.20;;;8.15;;
20283;SDS011;10301;50.832;4.080;2022-08-19T10:20:35;12.70;;;8.43;;
20283;SDS011;10301;50.832;4.080;2022-08-19T10:23:01;11.32;;;8.00;;
20283;SDS011;10301;50.832;4.080;2022-08-19T10:25:28;11.32;;;7.90;;
20283;SDS011;10301;50.832;4.080;2022-08-19T10:27:53;13.45;;;8.07;;
20283;SDS011;10301;50.832;4.080;2022-08-19T10:30:20;10.15;;;6.50;;
20283;SDS011;10301;50.832;4.080;2022-08-19T10:32:46;11.02;;;6.68;;
20283;SDS011;10301;50.832;4.080;2022-08-19T10:35:12;8.63;;;6.05;;
20283;SDS011;10301;50.832;4.080;2022-08-19T10:37:39;8.90;;;6.20;;
20283;SDS011;10301;50.832;4.080;2022-08-19T10:40:05;10.00;;;6.38;;
20283;SDS011;10301;50.832;4.080;2022-08-19T10:42:32;10.80;;;7.03;;
20283;SDS011;10301;50.832;4.080;2022-08-19T10:44:58;10.80;;;7.35;;
20283;SDS011;10301;50.832;4.080;2022-08-19T10:47:24;11.80;;;8.35;;
20283;SDS011;10301;50.832;4.080;2022-08-19T10:49:50;14.50;;;9.07;;
20283;SDS011;10301;50.832;4.080;2022-08-19T10:52:35;17.33;;;10.80;;
20283;SDS011;10301;50.832;4.080;2022-08-19T10:55:02;17.20;;;12.13;;
20283;SDS011;10301;50.832;4.080;2022-08-19T10:57:48;15.95;;;11.18;;
20283;SDS011;10301;50.832;4.080;2022-08-19T11:00:14;15.07;;;12.07;;
20283;SDS011;10301;50.832;4.080;2022-08-19T11:02:40;13.65;;;10.48;;
20283;SDS011;10301;50.832;4.080;2022-08-19T11:05:07;14.20;;;10.68;;
20283;SDS011;10301;50.832;4.080;2022-08-19T11:07:36;15.32;;;10.70;;
20283;SDS011;10301;50.832;4.080;2022-08-19T11:10:05;12.93;;;10.90;;
20283;SDS011;10301;50.832;4.080;2022-08-19T11:12:33;19.60;;;15.65;;
20283;SDS011;10301;50.832;4.080;2022-08-19T11:14:59;14.18;;;10.70;;
20283;SDS011;10301;50.832;4.080;2022-08-19T11:17:24;14.90;;;10.40;;
20283;SDS011;10301;50.832;4.080;2022-08-19T11:19:50;18.52;;;13.90;;
20283;SDS011;10301;50.832;4.080;2022-08-19T11:22:15;16.75;;;13.63;;
20283;SDS011;10301;50.832;4.080;2022-08-19T11:24:42;13.00;;;10.15;;
20283;SDS011;10301;50.832;4.080;2022-08-19T11:27:08;9.80;;;7.03;;
20283;SDS011;10301;50.832;4.080;2022-08-19T11:29:35;10.70;;;7.03;;
20283;SDS011;10301;50.832;4.080;2022-08-19T11:32:04;10.65;;;7.30;;
20283;SDS011;10301;50.832;4.080;2022-08-19T11:34:32;10.38;;;7.07;;
20283;SDS011;10301;50.832;4.080;2022-08-19T11:36:58;10.60;;;7.10;;
20283;SDS011;10301;50.832;4.080;2022-08-19T11:39:25;10.63;;;6.13;;
20283;SDS011;10301;50.832;4.080;2022-08-19T11:41:53;11.23;;;6.30;;
20283;SDS011;10301;50.832;4.080;2022-08-19T11:44:20;8.90;;;5.45;;
20283;SDS011;10301;50.832;4.080;2022-08-19T11:46:45;12.20;;;6.25;;
20283;SDS011;10301;50.832;4.080;2022-08-19T11:49:13;11.38;;;6.00;;
20283;SDS011;10301;50.832;4.080;2022-08-19T11:51:40;9.55;;;5.72;;
20283;SDS011;10301;50.832;4.080;2022-08-19T11:54:10;7.88;;;4.70;;
20283;SDS011;10301;50.832;4.080;2022-08-19T11:56:37;7.68;;;4.68;;
20283;SDS011;10301;50.832;4.080;2022-08-19T11:59:04;7.15;;;4.25;;
20283;SDS011;10301;50.832;4.080;2022-08-19T12:01:30;9.10;;;4.80;;
20283;SDS011;10301;50.832;4.080;2022-08-19T12:03:56;6.03;;;4.30;;
20283;SDS011;10301;50.832;4.080;2022-08-19T12:06:24;7.55;;;4.38;;
20283;SDS011;10301;50.832;4.080;2022-08-19T12:08:53;8.07;;;4.30;;
20283;SDS011;10301;50.832;4.080;2022-08-19T12:11:24;6.80;;;4.55;;
20283;SDS011;10301;50.832;4.080;2022-08-19T12:13:50;7.75;;;3.95;;
20283;SDS011;10301;50.832;4.080;2022-08-19T12:16:18;5.93;;;3.75;;
20283;SDS011;10301;50.832;4.080;2022-08-19T12:18:48;8.13;;;3.65;;
20283;SDS011;10301;50.832;4.080;2022-08-19T12:21:17;8.23;;;3.88;;
20283;SDS011;10301;50.832;4.080;2022-08-19T12:23:47;6.55;;;3.42;;
20283;SDS011;10301;50.832;4.080;2022-08-19T12:26:14;7.65;;;3.85;;
20283;SDS011;10301;50.832;4.080;2022-08-19T12:28:41;7.63;;;3.75;;
20283;SDS011;10301;50.832;4.080;2022-08-19T12:31:07;6.25;;;3.40;;
20283;SDS011;10301;50.832;4.080;2022-08-19T12:33:34;6.35;;;3.45;;
20283;SDS011;10301;50.832;4.080;2022-08-19T12:36:00;8.85;;;3.38;;
20283;SDS011;10301;50.832;4.080;2022-08-19T12:38:31;6.88;;;2.90;;
20283;SDS011;10301;50.832;4.080;2022-08-19T12:40:58;6.80;;;3.70;;
20283;SDS011;10301;50.832;4.080;2022-08-19T12:43:23;6.88;;;3.13;;
20283;SDS011;10301;50.832;4.080;2022-08-19T12:45:49;10.45;;;3.20;;
20283;SDS011;10301;50.832;4.080;2022-08-19T12:48:16;8.20;;;3.15;;
20283;SDS011;10301;50.832;4.080;2022-08-19T12:50:42;9.77;;;3.03;;
20283;SDS011;10301;50.832;4.080;2022-08-19T12:53:10;11.18;;;3.17;;
20283;SDS011;10301;50.832;4.080;2022-08-19T12:55:37;9.32;;;2.85;;
20283;SDS011;10301;50.832;4.080;2022-08-19T12:58:03;10.40;;;3.00;;
20283;SDS011;10301;50.832;4.080;2022-08-19T13:00:29;9.20;;;3.17;;
20283;SDS011;10301;50.832;4.080;2022-08-19T13:02:57;8.13;;;3.38;;
20283;SDS011;10301;50.832;4.080;2022-08-19T13:05:24;6.60;;;2.90;;
20283;SDS011;10301;50.832;4.080;2022-08-19T13:07:52;4.57;;;2.60;;
20283;SDS011;10301;50.832;4.080;2022-08-19T13:10:22;4.93;;;2.60;;
20283;SDS011;10301;50.832;4.080;2022-08-19T13:12:52;7.07;;;2.80;;
20283;SDS011;10301;50.832;4.080;2022-08-19T13:15:19;4.57;;;2.85;;
20283;SDS011;10301;50.832;4.080;2022-08-19T13:17:46;6.18;;;2.92;;
20283;SDS011;10301;50.832;4.080;2022-08-19T13:20:16;11.15;;;3.13;;
20283;SDS011;10301;50.832;4.080;2022-08-19T13:22:44;6.20;;;3.20;;
20283;SDS011;10301;50.832;4.080;2022-08-19T13:25:10;10.98;;;3.65;;
20283;SDS011;10301;50.832;4.080;2022-08-19T13:27:36;12.85;;;4.25;;
20283;SDS011;10301;50.832;4.080;2022-08-19T13:30:03;21.00;;;4.93;;
20283;SDS011;10301;50.832;4.080;2022-08-19T13:32:48;13.10;;;5.25;;
20283;SDS011;10301;50.832;4.080;2022-08-19T13:35:32;11.82;;;4.45;;
20283;SDS011;10301;50.832;4.080;2022-08-19T13:37:58;10.48;;;5.15;;
20283;SDS011;10301;50.832;4.080;2022-08-19T13:40:25;7.78;;;4.30;;
20283;SDS011;10301;50.832;4.080;2022-08-19T13:42:52;8.55;;;4.35;;
20283;SDS011;10301;50.832;4.080;2022-08-19T13:45:23;9.70;;;5.07;;
20283;SDS011;10301;50.832;4.080;2022-08-19T13:47:50;6.60;;;3.95;;
20283;SDS011;10301;50.832;4.080;2022-08-19T13:50:18;7.47;;;3.72;;
20283;SDS011;10301;50.832;4.080;2022-08-19T13:52:47;5.88;;;2.90;;
20283;SDS011;10301;50.832;4.080;2022-08-19T13:55:14;6.97;;;3.30;;
20283;SDS011;10301;50.832;4.080;2022-08-19T13:57:40;8.52;;;3.33;;
20283;SDS011;10301;50.832;4.080;2022-08-19T14:00:15;6.72;;;3.10;;
20283;SDS011;10301;50.832;4.080;2022-08-19T14:02:46;6.65;;;2.88;;
20283;SDS011;10301;50.832;4.080;2022-08-19T14:05:13;6.35;;;2.42;;
20283;SDS011;10301;50.832;4.080;2022-08-19T14:07:41;6.07;;;3.00;;
20283;SDS011;10301;50.832;4.080;2022-08-19T14:10:07;9.70;;;3.50;;
20283;SDS011;10301;50.832;4.080;2022-08-19T14:12:35;7.30;;;3.33;;
20283;SDS011;10301;50.832;4.080;2022-08-19T14:15:02;7.85;;;3.80;;
20283;SDS011;10301;50.832;4.080;2022-08-19T14:17:29;6.28;;;3.50;;
20283;SDS011;10301;50.832;4.080;2022-08-19T14:19:58;7.63;;;3.28;;
20283;SDS011;10301;50.832;4.080;2022-08-19T14:22:28;7.85;;;3.72;;
20283;SDS011;10301;50.832;4.080;2022-08-19T14:24:55;6.50;;;4.03;;
20283;SDS011;10301;50.832;4.080;2022-08-19T14:27:22;6.55;;;3.50;;
20283;SDS011;10301;50.832;4.080;2022-08-19T14:29:48;6.57;;;3.08;;
20283;SDS011;10301;50.832;4.080;2022-08-19T14:32:14;6.63;;;2.90;;
20283;SDS011;10301;50.832;4.080;2022-08-19T14:34:40;6.85;;;2.53;;
20283;SDS011;10301;50.832;4.080;2022-08-19T14:37:06;8.38;;;2.35;;
20283;SDS011;10301;50.832;4.080;2022-08-19T14:39:32;4.28;;;1.70;;